• Join FlightAware (Why Join?)
  • Login
  • US Flag 
12:14AM EDT


 

Airport Tracker/Info


-or-


 

Live Flight TrackerFlight Track Log ✈ N799J ✈ 04-Sep-2013 ✈ KHTO - KBTV

Flight Track Log - Related Links

Times and Time Zones

All times are in EDT time to prevent confusion due to time zone crossing. See the N799J flight status page for this flight to view local times or setup timezone preferences in your user account.

Time Position Orientation Groundspeed Altitude Reporting Facility
EDT Latitude Longitude Course Direction KTS MPH feet Rate Location/Type
01:01PM 40.9333 -72.3000 237° Southwest 95 109 1,600  Level New York TRACON
01:02PM 40.9167 -72.3333 237° Southwest 92 106 2,100 480 Climbing New York TRACON
01:03PM 40.9333 -72.3500 323° Northwest 88 101 2,600 480 Climbing New York TRACON
01:04PM 40.9333 -72.3833 270° West 92 106 3,100 420 Climbing New York TRACON
01:05PM 40.9500 -72.4167 304° West 98 113 3,500 420 Climbing New York TRACON
01:06PM 40.9500 -72.4500 270° West 97 112 4,000 540 Climbing New York TRACON
01:07PM 40.9667 -72.4833 304° West 97 112 4,600 540 Climbing New York TRACON
01:08PM 40.9833 -72.5167 304° West 96 110 5,100 480 Climbing New York TRACON
01:09PM 40.9833 -72.5500 270° West 93 107 5,600 540 Climbing New York TRACON
01:10PM 41.0000 -72.5667 323° Northwest 87 100 6,200 660 Climbing New York TRACON
01:11PM 41.0000 -72.6000 270° West 88 101 7,000 480 Climbing New York TRACON
01:12PM 41.0167 -72.6333 304° West 98 113 7,200 60 Climbing New York TRACON
01:13PM 41.0333 -72.6833 294° West 122 140 7,200  Level New York TRACON
01:14PM 41.0333 -72.7167 270° West 121 139 7,200  Level New York TRACON
01:15PM 41.0500 -72.7500 304° West 119 137 7,200  Level New York TRACON
01:16PM 41.0667 -72.8000 294° West 122 140 7,200  Level New York TRACON
01:17PM 41.0667 -72.8333 270° West 123 142 7,200  Level New York TRACON
01:18PM 41.0833 -72.8833 294° West 124 143 7,200  Level New York TRACON
01:19PM 41.1000 -72.9167 304° West 125 144 7,200  Level New York TRACON
01:20PM 41.1167 -72.9667 294° West 122 140 7,200  Level New York TRACON
01:21PM 41.1333 -73.0000 304° West 124 143 7,200  Level New York TRACON
01:22PM 41.1333 -73.0500 270° West 124 143 7,200  Level New York TRACON
01:23PM 41.1500 -73.0833 304° West 127 146 7,200  Level New York TRACON
01:24PM 41.1667 -73.1333 294° West 122 140 7,200  Level New York TRACON
01:25PM 41.2000 -73.1333 360° North 126 145 7,200  Level New York TRACON
01:26PM 41.2333 -73.1500 339° North 122 140 7,200  Level New York TRACON
01:27PM 41.2667 -73.1667 339° North 124 143 7,200 -60 Level New York TRACON
01:29PM 41.3392 -73.2031 339° North 129 148 7,100 -60 Descending Boston Center
01:30PM 41.3661 -73.2144 342° North 129 148 7,100  Level Boston Center
01:31PM 41.4014 -73.2261 346° North 129 148 7,100  Level Boston Center
01:32PM 41.4306 -73.2403 340° North 129 148 7,100  Level Boston Center
01:33PM 41.4681 -73.2544 344° North 129 148 7,100  Level Boston Center
01:34PM 41.4969 -73.2661 343° North 129 148 7,100  Level Boston Center
01:35PM 41.5322 -73.2831 340° North 129 148 7,100 -60 Level Boston Center
01:36PM 41.5636 -73.2947 344° North 129 148 7,000 -60 Descending Boston Center
01:37PM 41.5967 -73.3089 342° North 124 143 7,000  Level Boston Center
01:38PM 41.6258 -73.3233 340° North 124 143 7,000  Level Boston Center
01:39PM 41.6633 -73.3378 344° North 124 143 7,000  Level Boston Center
01:40PM 41.6903 -73.3492 342° North 124 143 7,000  Level Boston Center
01:41PM 41.7256 -73.3664 340° North 124 143 7,000  Level Boston Center
01:42PM 41.7567 -73.3781 344° North 129 148 7,000  Level Boston Center
01:43PM 41.7919 -73.3922 343° North 130 150 7,000  Level Boston Center
01:44PM 41.8231 -73.4039 344° North 130 150 7,000  Level Boston Center
01:45PM 41.8606 -73.4214 341° North 130 150 7,000  Level Boston Center
01:46PM 41.8917 -73.4328 345° North 130 150 7,000  Level Boston Center
01:47PM 41.9269 -73.4475 343° North 130 150 7,000  Level Boston Center
01:48PM 41.9497 -73.4617 335° Northwest 117 135 7,000  Level Boston Center
01:49PM 41.9686 -73.4706 341° North 113 130 7,000  Level Boston Center
01:49PM 41.9872 -73.4736 353° North 119 137 7,000  Level Boston Center
01:50PM 42.0161 -73.4881 340° North 114 131 7,000  Level Boston Center
01:51PM 42.0494 -73.5025 342° North 114 131 7,000  Level Boston Center
01:52PM 42.0828 -73.5169 342° North 114 131 7,000  Level Boston Center
01:53PM 42.1158 -73.5233 352° North 114 131 7,000  Level Boston Center
01:54PM 42.1306 -73.5150 23° Northeast 132 152 7,000  Level Boston Center
01:54PM 42.1472 -73.5097 13° North 109 125 7,000  Level Boston Center
01:55PM 42.1661 -73.5044 12° North 125 144 7,000  Level Boston Center
01:55PM 42.1828 -73.5047 359° North 109 125 7,000  Level Boston Center
01:56PM 42.1994 -73.5022 North 124 143 7,000  Level Boston Center
01:56PM 42.2161 -73.5025 359° North 119 137 7,000  Level Boston Center
01:57PM 42.2328 -73.5028 359° North 122 140 7,000  Level Boston Center
01:57PM 42.2494 -73.5003 North 119 137 7,000  Level Boston Center
01:58PM 42.2725 -73.4922 14° North 125 144 7,000  Level Boston Center
01:59PM 42.3081 -73.4872 North 127 146 7,000  Level Boston Center
02:00PM 42.3436 -73.4822 North 129 148 7,000  Level Boston Center
02:01PM 42.3792 -73.4717 12° North 130 150 7,000  Level Boston Center
02:02PM 42.4144 -73.4664 North 129 148 7,000  Level Boston Center
02:03PM 42.4522 -73.4586 North 133 153 7,000  Level Boston Center
02:04PM 42.4875 -73.4508 North 131 151 7,000  Level Boston Center
02:05PM 42.5231 -73.4431 North 129 148 7,000  Level Boston Center
02:06PM 42.5586 -73.4350 North 128 147 7,000  Level Boston Center
02:07PM 42.5942 -73.4300 North 127 146 7,000  Level Boston Center
02:08PM 42.6275 -73.4219 10° North 131 151 7,000  Level Boston Center
02:09PM 42.6631 -73.4142 North 129 148 7,000  Level Boston Center
02:10PM 42.7006 -73.4092 North 131 151 7,000  Level Boston Center
02:11PM 42.7319 -73.4011 11° North 132 152 7,000  Level Boston Center
02:12PM 42.7694 -73.3903 12° North 126 145 7,000  Level Boston Center
02:13PM 42.8092 -73.3853 North 126 145 7,000  Level Boston Center
02:14PM 42.8406 -73.3772 11° North 124 143 7,000  Level Boston Center
02:15PM 42.8781 -73.3694 North 129 148 7,000  Level Boston Center
02:16PM 42.9136 -73.3614 North 128 147 7,000  Level Boston Center
02:17PM 42.9469 -73.3561 North 124 143 7,000  Level Boston Center
02:18PM 42.9825 -73.3511 North 128 147 7,000  Level Boston Center
02:19PM 43.0178 -73.3458 North 124 143 7,000  Level Boston Center
02:20PM 43.0511 -73.3436 North 119 137 7,000  Level Boston Center
02:21PM 43.0908 -73.3356 North 138 159 7,000  Level Boston Center
02:22PM 43.1200 -73.3333 North 126 145 7,100  Climbing Boston Center
02:23PM 43.1597 -73.3339 359° North 121 139 7,100  Level Boston Center
02:24PM 43.1867 -73.3342 360° North 116 133 7,100  Level Boston Center
02:25PM 43.2200 -73.3319 North 111 128 7,100  Level Boston Center
02:26PM 43.2514 -73.3322 360° North 111 128 7,100 -60 Level Boston Center
02:27PM 43.2889 -73.3300 North 117 135 7,000 -60 Descending Boston Center
02:28PM 43.3161 -73.3275 North 117 135 7,000  Level Boston Center
02:29PM 43.3514 -73.3253 North 117 135 7,000  Level Boston Center
02:30PM 43.3828 -73.3256 360° North 117 135 7,000  Level Boston Center
02:31PM 43.4222 -73.3233 North 123 142 7,000  Level Boston Center
02:32PM 43.4556 -73.3239 359° North 123 142 7,000  Level Boston Center
02:33PM 43.4892 -73.3186 North 123 142 7,000  Level Boston Center
02:34PM 43.5225 -73.3192 359° North 123 142 7,000  Level Boston Center
02:35PM 43.5578 -73.3167 North 123 142 7,000  Level Boston Center
02:36PM 43.5911 -73.3172 359° North 123 142 7,000  Level Boston Center
02:37PM 43.6267 -73.3150 North 123 142 7,000  Level Boston Center
02:38PM 43.6622 -73.3097 North 123 142 7,000  Level Boston Center
02:39PM 43.6956 -73.3103 359° North 123 142 7,000  Level Boston Center
02:40PM 43.7267 -73.3050 North 123 142 7,000  Level Boston Center
02:41PM 43.7581 -73.3025 North 118 136 7,000  Level Boston Center
02:42PM 43.7914 -73.2942 10° North 118 136 7,000 -240 Level Boston Center
02:43PM 43.8269 -73.2889 North 123 142 6,600 -300 Descending Boston Center
02:44PM 43.8644 -73.2867 North 129 148 6,400 -360 Descending Boston Center
02:45PM 43.9019 -73.2786 North 134 154 6,000 -480 Descending Boston Center
02:46PM 43.9436 -73.2733 North 134 154 5,500 -420 Descending Boston Center
02:47PM 43.9814 -73.2653 North 141 162 5,200 -300 Descending Boston Center
02:48PM 44.0189 -73.2542 12° North 141 162 4,900 -360 Descending Boston Center
02:49PM 44.0586 -73.2461 North 141 162 4,600 -360 Descending Boston Center
02:50PM 44.0961 -73.2381 North 141 162 4,300 -300 Descending Boston Center
02:51PM 44.1336 -73.2297 North 141 162 4,000 -300 Descending Boston Center
02:53PM 44.1688 -73.2078 10° North  Level FlightAware Approximate
03:00PM 44.3994 -73.1667 North  Level FlightAware Approximate
03:01PM 44.4323 -73.1586 10° North  Level FlightAware Approximate
03:02PM 44.4652 -73.1504 10° North  Level FlightAware Approximate
03:03PM 44.4667 -73.1500 10° North  Level FlightAware Approximate
03:04PM 44.4719 -73.1533 10° North  Level Estimated
03:05PM 44.4667 -73.1500 10° North  Level FlightAware Approximate
03:06PM 44.4719 -73.1533 10° North  Level Estimated
03:07PM 44.4667 -73.1500 10° North  Level FlightAware Approximate